createdAt,value
2018-07-20T00:00:05.011Z,978.42
2018-07-20T00:01:05.827Z,978.40
2018-07-20T00:02:05.944Z,978.37
2018-07-20T00:03:05.009Z,978.37
2018-07-20T00:04:05.088Z,978.40
2018-07-20T00:05:05.508Z,978.40
2018-07-20T00:06:05.650Z,978.37
2018-07-20T00:07:05.846Z,978.35
2018-07-20T00:08:05.627Z,978.40
2018-07-20T00:09:04.832Z,978.43
2018-07-20T00:10:05.647Z,978.54
2018-07-20T00:11:05.277Z,978.48
2018-07-20T00:12:05.271Z,978.41
2018-07-20T00:13:04.961Z,978.38
2018-07-20T00:14:05.701Z,978.35
2018-07-20T00:15:05.179Z,978.35
2018-07-20T00:16:04.951Z,978.41
2018-07-20T00:17:04.898Z,978.49
2018-07-20T00:18:05.850Z,978.44
2018-07-20T00:19:05.744Z,978.41
2018-07-20T00:20:05.355Z,978.38
2018-07-20T00:21:05.214Z,978.38
2018-07-20T00:22:10.374Z,978.46
2018-07-20T00:23:05.199Z,978.39
2018-07-20T00:24:05.760Z,978.44
2018-07-20T00:25:05.387Z,978.39
2018-07-20T00:26:05.444Z,978.42
2018-07-20T00:27:05.122Z,978.39
2018-07-20T00:28:06.107Z,978.39
2018-07-20T00:29:05.515Z,978.39
2018-07-20T00:30:05.378Z,978.49
2018-07-20T00:31:05.352Z,978.42
2018-07-20T00:32:05.183Z,978.42
2018-07-20T00:33:05.204Z,978.36
2018-07-20T00:34:05.173Z,978.39
2018-07-20T00:35:05.771Z,978.36
2018-07-20T00:36:05.625Z,978.33
2018-07-20T00:37:05.194Z,978.28
2018-07-20T00:38:05.918Z,978.28
2018-07-20T00:39:05.192Z,978.33
2018-07-20T00:40:05.151Z,978.42
2018-07-20T00:41:05.819Z,978.36
2018-07-20T00:42:05.147Z,978.28
2018-07-20T00:43:05.318Z,978.25
2018-07-20T00:44:05.442Z,978.37
2018-07-20T00:45:05.011Z,978.31
2018-07-20T00:46:05.175Z,978.25
2018-07-20T00:47:05.272Z,978.34
2018-07-20T00:48:04.856Z,978.31
2018-07-20T00:49:05.013Z,978.40
2018-07-20T00:50:05.102Z,978.34
2018-07-20T00:51:06.478Z,978.20
2018-07-20T00:52:05.517Z,978.37
2018-07-20T00:53:05.730Z,978.29
2018-07-20T00:54:05.593Z,978.23
2018-07-20T00:55:05.739Z,978.20
2018-07-20T00:56:05.614Z,978.18
2018-07-20T00:57:05.247Z,978.23
2018-07-20T00:58:05.773Z,978.29
2018-07-20T00:59:04.989Z,978.21
2018-07-20T01:00:05.001Z,978.21
2018-07-20T01:01:05.476Z,978.26
2018-07-20T01:02:05.347Z,978.29
2018-07-20T01:03:05.446Z,978.18
2018-07-20T01:04:06.261Z,978.24
2018-07-20T01:05:05.751Z,978.15
2018-07-20T01:06:05.931Z,978.18
2018-07-20T01:07:04.907Z,978.24
2018-07-20T01:08:05.358Z,978.19
2018-07-20T01:09:05.573Z,978.13
2018-07-20T01:10:05.619Z,978.19
2018-07-20T01:11:05.359Z,978.19
2018-07-20T01:12:05.724Z,978.19
2018-07-20T01:13:05.525Z,978.22
2018-07-20T01:14:05.177Z,978.19
2018-07-20T01:15:05.783Z,978.10
2018-07-20T01:16:05.800Z,978.22
2018-07-20T01:17:05.232Z,978.13
2018-07-20T01:18:05.047Z,978.19
2018-07-20T01:19:05.112Z,977.99
2018-07-20T01:20:05.191Z,978.02
2018-07-20T01:21:05.494Z,978.17
2018-07-20T01:22:05.590Z,978.05
2018-07-20T01:23:05.629Z,978.14
2018-07-20T01:24:05.328Z,978.08
2018-07-20T01:25:05.340Z,978.00
2018-07-20T01:26:04.940Z,977.91
2018-07-20T01:27:05.573Z,978.11
2018-07-20T01:28:05.139Z,977.91
2018-07-20T01:29:10.177Z,978.09
2018-07-20T01:30:05.264Z,977.97
2018-07-20T01:31:05.424Z,978.03
2018-07-20T01:32:05.214Z,978.03
2018-07-20T01:33:10.927Z,978.17
2018-07-20T01:34:04.964Z,978.12
2018-07-20T01:35:04.884Z,978.00
2018-07-20T01:36:04.996Z,978.12
2018-07-20T01:37:05.293Z,978.03
2018-07-20T01:38:10.134Z,978.06
2018-07-20T01:39:05.356Z,978.09
2018-07-20T01:40:05.361Z,978.01
2018-07-20T01:41:05.898Z,977.98
2018-07-20T01:42:05.784Z,977.89
2018-07-20T01:43:05.663Z,978.01
2018-07-20T01:44:05.804Z,977.98
2018-07-20T01:45:05.334Z,977.95
2018-07-20T01:46:04.932Z,977.92
2018-07-20T01:47:05.841Z,977.84
2018-07-20T01:48:05.904Z,978.04
2018-07-20T01:49:05.596Z,978.01
2018-07-20T01:50:05.709Z,977.84
2018-07-20T01:51:05.682Z,977.98
2018-07-20T01:52:04.930Z,977.93
2018-07-20T01:53:05.818Z,977.90
2018-07-20T01:54:05.449Z,977.99
2018-07-20T01:55:05.369Z,977.99
2018-07-20T01:56:05.141Z,977.81
2018-07-20T01:57:05.695Z,977.99
2018-07-20T01:58:05.710Z,977.84
2018-07-20T01:59:05.543Z,977.96
2018-07-20T02:00:04.853Z,977.96
2018-07-20T02:01:10.626Z,977.85
2018-07-20T02:02:05.626Z,978.02
2018-07-20T02:03:05.371Z,977.85
2018-07-20T02:04:05.441Z,977.88
2018-07-20T02:05:05.446Z,977.85
2018-07-20T02:06:06.357Z,977.91
2018-07-20T02:07:05.504Z,977.88
2018-07-20T02:08:05.687Z,977.85
2018-07-20T02:09:05.147Z,977.88
2018-07-20T02:10:05.731Z,977.80
2018-07-20T02:11:05.195Z,977.91
2018-07-20T02:12:05.764Z,977.85
2018-07-20T02:13:05.566Z,977.91
2018-07-20T02:14:10.470Z,977.89
2018-07-20T02:15:05.296Z,977.83
2018-07-20T02:16:05.328Z,977.94
2018-07-20T02:17:05.466Z,977.89
2018-07-20T02:18:05.656Z,978.00
2018-07-20T02:19:05.321Z,977.89
2018-07-20T02:20:05.381Z,977.86
2018-07-20T02:21:09.962Z,977.83
2018-07-20T02:22:06.076Z,977.92
2018-07-20T02:23:05.757Z,977.98
2018-07-20T02:24:05.229Z,977.80
2018-07-20T02:25:05.132Z,977.89
2018-07-20T02:26:10.377Z,977.95
2018-07-20T02:27:05.731Z,977.87
2018-07-20T02:28:05.690Z,977.78
2018-07-20T02:29:06.129Z,977.78
2018-07-20T02:30:05.810Z,977.75
2018-07-20T02:31:05.444Z,977.84
2018-07-20T02:32:06.250Z,977.92
2018-07-20T02:33:05.505Z,977.84
2018-07-20T02:34:05.271Z,977.90
2018-07-20T02:35:05.608Z,977.87
2018-07-20T02:36:05.542Z,977.87
2018-07-20T02:37:05.548Z,977.84
2018-07-20T02:38:05.141Z,977.82
2018-07-20T02:39:05.945Z,977.85
2018-07-20T02:40:06.301Z,977.88
2018-07-20T02:41:05.099Z,977.82
2018-07-20T02:42:05.006Z,977.70
2018-07-20T02:43:05.667Z,977.70
2018-07-20T02:44:04.938Z,977.79
2018-07-20T02:45:08.849Z,977.71
2018-07-20T02:46:05.639Z,977.68
2018-07-20T02:47:04.948Z,977.77
2018-07-20T02:48:05.739Z,977.88
2018-07-20T02:49:05.750Z,977.85
2018-07-20T02:50:05.422Z,977.82
2018-07-20T02:51:05.226Z,977.91
2018-07-20T02:52:05.377Z,977.68
2018-07-20T02:53:04.898Z,977.68
2018-07-20T02:54:05.718Z,977.71
2018-07-20T02:55:05.689Z,977.88
2018-07-20T02:56:05.548Z,977.94
2018-07-20T02:57:04.941Z,977.88
2018-07-20T02:58:05.720Z,977.91
2018-07-20T02:59:05.520Z,977.79
2018-07-20T03:00:05.571Z,977.91
2018-07-20T03:01:05.737Z,977.77
2018-07-20T03:02:05.594Z,977.82
2018-07-20T03:03:05.691Z,977.85
2018-07-20T03:04:05.729Z,977.80
2018-07-20T03:05:05.781Z,977.83
2018-07-20T03:06:06.163Z,977.74
2018-07-20T03:07:05.077Z,977.74
2018-07-20T03:08:05.640Z,977.71
2018-07-20T03:09:06.320Z,977.94
2018-07-20T03:10:05.253Z,977.77
2018-07-20T03:11:05.441Z,977.77
2018-07-20T03:12:04.901Z,977.77
2018-07-20T03:13:05.602Z,977.69
2018-07-20T03:14:05.053Z,977.89
2018-07-20T03:15:05.724Z,977.89
2018-07-20T03:16:05.805Z,977.86
2018-07-20T03:17:05.440Z,977.92
2018-07-20T03:18:05.032Z,977.77
2018-07-20T03:19:05.572Z,977.89
2018-07-20T03:20:05.397Z,977.86
2018-07-20T03:21:05.895Z,977.80
2018-07-20T03:22:05.480Z,977.83
2018-07-20T03:23:05.641Z,977.86
2018-07-20T03:24:05.938Z,977.72
2018-07-20T03:25:05.616Z,977.80
2018-07-20T03:26:06.048Z,977.89
2018-07-20T03:27:05.834Z,977.83
2018-07-20T03:28:05.827Z,977.75
2018-07-20T03:29:05.383Z,977.78
2018-07-20T03:30:05.609Z,977.86
2018-07-20T03:31:05.859Z,977.75
2018-07-20T03:32:05.836Z,977.86
2018-07-20T03:33:05.257Z,977.75
2018-07-20T03:34:04.885Z,977.78
2018-07-20T03:35:05.920Z,977.80
2018-07-20T03:36:05.567Z,977.78
2018-07-20T03:37:05.209Z,977.75
2018-07-20T03:38:05.203Z,977.75
2018-07-20T03:39:05.378Z,977.89
2018-07-20T03:40:04.947Z,977.80
2018-07-20T03:41:05.601Z,977.83
2018-07-20T03:42:05.815Z,977.61
2018-07-20T03:43:05.206Z,977.78
2018-07-20T03:44:05.550Z,977.81
2018-07-20T03:45:11.020Z,977.86
2018-07-20T03:46:06.198Z,977.75
2018-07-20T03:47:04.893Z,977.89
2018-07-20T03:48:04.943Z,977.72
2018-07-20T03:49:05.933Z,977.81
2018-07-20T03:50:05.073Z,977.89
2018-07-20T03:51:05.103Z,977.78
2018-07-20T03:52:06.624Z,977.86
2018-07-20T03:53:04.941Z,977.72
2018-07-20T03:54:05.598Z,977.72
2018-07-20T03:55:05.367Z,977.78
2018-07-20T03:56:05.307Z,977.66
2018-07-20T03:57:04.953Z,977.61
2018-07-20T03:58:05.395Z,977.66
2018-07-20T03:59:05.321Z,977.80
2018-07-20T04:00:04.961Z,977.61
2018-07-20T04:01:05.788Z,977.58
2018-07-20T04:02:05.274Z,977.66
2018-07-20T04:03:05.845Z,977.68
2018-07-20T04:04:10.069Z,977.68
2018-07-20T04:05:05.434Z,977.68
2018-07-20T04:06:05.672Z,977.60
2018-07-20T04:07:06.846Z,977.62
2018-07-20T04:08:05.908Z,977.56
2018-07-20T04:09:05.698Z,977.56
2018-07-20T04:10:05.085Z,977.61
2018-07-20T04:11:05.831Z,977.58
2018-07-20T04:12:06.115Z,977.57
2018-07-20T04:13:05.477Z,977.62
2018-07-20T04:14:05.477Z,977.70
2018-07-20T04:15:05.788Z,977.59
2018-07-20T04:16:05.683Z,977.66
2018-07-20T04:17:05.747Z,977.54
2018-07-20T04:18:05.640Z,977.51
2018-07-20T04:19:05.099Z,977.59
2018-07-20T04:20:05.027Z,977.61
2018-07-20T04:21:06.147Z,977.55
2018-07-20T04:22:05.612Z,977.52
2018-07-20T04:23:05.567Z,977.65
2018-07-20T04:24:05.562Z,977.56
2018-07-20T04:25:11.303Z,977.50
2018-07-20T04:26:05.547Z,977.44
2018-07-20T04:27:04.914Z,977.55
2018-07-20T04:28:05.331Z,977.54
2018-07-20T04:29:05.748Z,977.60
2018-07-20T04:30:05.010Z,977.50
2018-07-20T04:31:05.880Z,977.44
2018-07-20T04:32:05.764Z,977.41
2018-07-20T04:33:05.409Z,977.46
2018-07-20T04:34:05.396Z,977.48
2018-07-20T04:35:05.456Z,977.44
2018-07-20T04:36:04.915Z,977.47
2018-07-20T04:37:05.845Z,977.55
2018-07-20T04:38:05.280Z,977.48
2018-07-20T04:39:05.105Z,977.56
2018-07-20T04:40:06.382Z,977.59
2018-07-20T04:41:05.105Z,977.66
2018-07-20T04:42:05.998Z,977.58
2018-07-20T04:43:05.508Z,977.71
2018-07-20T04:44:04.933Z,977.65
2018-07-20T04:45:05.046Z,977.76
2018-07-20T04:46:05.657Z,977.59
2018-07-20T04:47:05.273Z,977.67
2018-07-20T04:48:05.235Z,977.70
2018-07-20T04:49:05.122Z,977.84
2018-07-20T04:50:05.304Z,977.78
2018-07-20T04:51:05.296Z,977.69
2018-07-20T04:52:05.400Z,977.62
2018-07-20T04:53:05.075Z,977.81
2018-07-20T04:54:05.702Z,977.72
2018-07-20T04:55:10.581Z,977.71
2018-07-20T04:56:10.486Z,977.80
2018-07-20T04:57:05.953Z,977.70
2018-07-20T04:58:09.896Z,977.79
2018-07-20T04:59:06.069Z,977.72
2018-07-20T05:00:05.303Z,977.55
2018-07-20T05:01:05.278Z,977.65
2018-07-20T05:02:05.053Z,977.65
2018-07-20T05:03:05.047Z,977.56
2018-07-20T05:04:05.579Z,977.72
2018-07-20T05:05:05.024Z,977.69
2018-07-20T05:06:05.432Z,977.74
2018-07-20T05:07:05.165Z,977.74
2018-07-20T05:08:05.229Z,977.70
2018-07-20T05:09:05.371Z,977.70
2018-07-20T05:10:04.891Z,977.69
2018-07-20T05:11:04.936Z,977.69
2018-07-20T05:12:05.622Z,977.71
2018-07-20T05:13:05.599Z,977.54
2018-07-20T05:14:04.981Z,977.62
2018-07-20T05:15:10.155Z,977.69
2018-07-20T05:16:04.998Z,977.58
2018-07-20T05:17:06.354Z,977.60
2018-07-20T05:18:05.122Z,977.51
2018-07-20T05:19:05.152Z,977.65
2018-07-20T05:20:05.525Z,977.45
2018-07-20T05:21:05.507Z,977.59
2018-07-20T05:22:05.688Z,977.72
2018-07-20T05:23:05.482Z,977.58
2018-07-20T05:24:06.023Z,977.71
2018-07-20T05:25:05.529Z,977.57
2018-07-20T05:26:05.861Z,977.59
2018-07-20T05:27:05.720Z,977.62
2018-07-20T05:28:05.672Z,977.62
2018-07-20T05:29:05.408Z,977.58
2018-07-20T05:30:05.188Z,977.46
2018-07-20T05:31:05.634Z,977.61
2018-07-20T05:32:05.915Z,977.65
2018-07-20T05:33:05.343Z,977.51
2018-07-20T05:34:05.114Z,977.62
2018-07-20T05:35:05.494Z,977.67
2018-07-20T05:36:05.242Z,977.47
2018-07-20T05:37:05.319Z,977.61
2018-07-20T05:38:05.304Z,977.61
2018-07-20T05:39:05.164Z,977.65
2018-07-20T05:40:05.735Z,977.54
2018-07-20T05:41:05.706Z,977.60
2018-07-20T05:42:05.254Z,977.47
2018-07-20T05:43:05.057Z,977.53
2018-07-20T05:44:05.402Z,977.69
2018-07-20T05:45:05.429Z,977.55
2018-07-20T05:46:05.465Z,977.58
2018-07-20T05:47:10.222Z,977.49
2018-07-20T05:48:05.692Z,977.57
2018-07-20T05:49:05.757Z,977.60
2018-07-20T05:50:05.823Z,977.51
2018-07-20T05:51:05.066Z,977.57
2018-07-20T05:52:06.017Z,977.56
2018-07-20T05:53:05.142Z,977.53
2018-07-20T05:54:06.305Z,977.62
2018-07-20T05:55:05.517Z,977.50
2018-07-20T05:56:05.552Z,977.53
2018-07-20T05:57:05.622Z,977.61
2018-07-20T05:58:05.708Z,977.46
2018-07-20T05:59:05.746Z,977.69
2018-07-20T06:00:06.984Z,977.49
2018-07-20T06:01:05.372Z,977.51
2018-07-20T06:02:04.910Z,977.48
2018-07-20T06:03:05.046Z,977.51
2018-07-20T06:04:05.442Z,977.48
2018-07-20T06:05:05.428Z,977.57
2018-07-20T06:06:05.155Z,977.51
2018-07-20T06:07:05.665Z,977.62
2018-07-20T06:08:05.128Z,977.47
2018-07-20T06:09:05.837Z,977.59
2018-07-20T06:10:04.911Z,977.66
2018-07-20T06:11:05.824Z,977.52
2018-07-20T06:12:05.027Z,977.69
2018-07-20T06:13:05.234Z,977.55
2018-07-20T06:14:05.495Z,977.57
2018-07-20T06:15:05.136Z,977.71
2018-07-20T06:16:04.858Z,977.54
2018-07-20T06:17:05.513Z,977.57
2018-07-20T06:18:05.158Z,977.65
2018-07-20T06:19:05.290Z,977.56
2018-07-20T06:20:05.956Z,977.56
2018-07-20T06:21:05.916Z,977.67
2018-07-20T06:22:06.127Z,977.62
2018-07-20T06:23:06.322Z,977.56
2018-07-20T06:24:05.703Z,977.52
2018-07-20T06:25:05.761Z,977.55
2018-07-20T06:26:05.624Z,977.40
2018-07-20T06:27:05.656Z,977.43
2018-07-20T06:28:05.775Z,977.54
2018-07-20T06:29:05.221Z,977.60
2018-07-20T06:30:05.414Z,977.57
2018-07-20T06:31:05.505Z,977.39
2018-07-20T06:32:05.367Z,977.44
2018-07-20T06:33:05.126Z,977.50
2018-07-20T06:34:05.770Z,977.44
2018-07-20T06:35:04.982Z,977.50
2018-07-20T06:36:05.525Z,977.55
2018-07-20T06:37:05.366Z,977.55
2018-07-20T06:38:05.850Z,977.58
2018-07-20T06:39:05.739Z,977.49
2018-07-20T06:40:05.560Z,977.46
2018-07-20T06:41:05.496Z,977.45
2018-07-20T06:42:05.568Z,977.42
2018-07-20T06:43:05.802Z,977.54
2018-07-20T06:44:05.417Z,977.42
2018-07-20T06:45:05.915Z,977.42
2018-07-20T06:46:05.230Z,977.57
2018-07-20T06:47:05.440Z,977.42
2018-07-20T06:48:05.976Z,977.36
2018-07-20T06:49:06.171Z,977.56
2018-07-20T06:50:05.311Z,977.41
2018-07-20T06:51:05.430Z,977.35
2018-07-20T06:52:05.755Z,977.38
2018-07-20T06:53:05.650Z,977.47
2018-07-20T06:54:05.622Z,977.46
2018-07-20T06:55:06.018Z,977.49
2018-07-20T06:56:05.812Z,977.43
2018-07-20T06:57:06.146Z,977.43
2018-07-20T06:58:05.808Z,977.48
2018-07-20T06:59:05.570Z,977.48
2018-07-20T07:00:05.586Z,977.45
2018-07-20T07:01:05.530Z,977.36
2018-07-20T07:02:05.437Z,977.42
2018-07-20T07:03:05.299Z,977.42
2018-07-20T07:04:04.997Z,977.45
2018-07-20T07:05:04.950Z,977.45
2018-07-20T07:06:05.931Z,977.44
2018-07-20T07:07:05.551Z,977.32
2018-07-20T07:08:05.490Z,977.47
2018-07-20T07:09:05.752Z,977.38
2018-07-20T07:10:05.744Z,977.41
2018-07-20T07:11:05.663Z,977.44
2018-07-20T07:12:05.163Z,977.47
2018-07-20T07:13:05.851Z,977.41
2018-07-20T07:14:05.721Z,977.31
2018-07-20T07:15:05.470Z,977.43
2018-07-20T07:16:05.367Z,977.43
2018-07-20T07:17:05.381Z,977.43
2018-07-20T07:18:05.091Z,977.49
2018-07-20T07:19:05.795Z,977.31
2018-07-20T07:20:05.534Z,977.30
2018-07-20T07:21:05.415Z,977.27
2018-07-20T07:22:05.146Z,977.48
2018-07-20T07:23:05.798Z,977.45
2018-07-20T07:24:05.908Z,977.39
2018-07-20T07:25:05.856Z,977.47
2018-07-20T07:26:05.790Z,977.50
2018-07-20T07:27:05.109Z,977.35
2018-07-20T07:28:05.170Z,977.35
2018-07-20T07:29:05.565Z,977.32
2018-07-20T07:30:05.571Z,977.50
2018-07-20T07:31:05.679Z,977.55
2018-07-20T07:32:05.025Z,977.43
2018-07-20T07:33:05.828Z,977.43
2018-07-20T07:34:05.823Z,977.49
2018-07-20T07:35:05.006Z,977.49
2018-07-20T07:36:05.050Z,977.34
2018-07-20T07:37:05.611Z,977.34
2018-07-20T07:38:05.464Z,977.28
2018-07-20T07:39:05.558Z,977.34
2018-07-20T07:40:05.883Z,977.43
2018-07-20T07:41:05.606Z,977.46
2018-07-20T07:42:05.236Z,977.34
2018-07-20T07:43:05.396Z,977.43
2018-07-20T07:44:06.342Z,977.37
2018-07-20T07:45:05.018Z,977.37
2018-07-20T07:46:05.737Z,977.40
2018-07-20T07:47:05.118Z,977.31
2018-07-20T07:48:05.230Z,977.29
2018-07-20T07:49:05.736Z,977.25
2018-07-20T07:50:05.733Z,977.28
2018-07-20T07:51:05.339Z,977.37
2018-07-20T07:52:05.248Z,977.22
2018-07-20T07:53:05.566Z,977.34
2018-07-20T07:54:05.557Z,977.37
2018-07-20T07:55:05.413Z,977.33
2018-07-20T07:56:05.392Z,977.27
2018-07-20T07:57:05.498Z,977.27
2018-07-20T07:58:05.270Z,977.36
2018-07-20T07:59:05.809Z,977.21
2018-07-20T08:00:05.894Z,977.33
2018-07-20T08:01:05.162Z,977.24
2018-07-20T08:02:10.098Z,977.23
2018-07-20T08:03:05.052Z,977.29
2018-07-20T08:04:05.770Z,977.26
2018-07-20T08:05:05.774Z,977.23
2018-07-20T08:06:05.620Z,977.14
2018-07-20T08:07:10.415Z,977.22
2018-07-20T08:08:05.115Z,977.16
2018-07-20T08:09:05.633Z,977.16
2018-07-20T08:10:06.163Z,977.10
2018-07-20T08:11:05.840Z,977.22
2018-07-20T08:12:06.083Z,977.25
2018-07-20T08:13:05.561Z,977.10
2018-07-20T08:14:05.835Z,977.10
2018-07-20T08:15:05.356Z,977.07
2018-07-20T08:16:05.045Z,977.13
2018-07-20T08:17:04.922Z,977.10
2018-07-20T08:18:05.489Z,977.13
2018-07-20T08:19:05.150Z,977.22
2018-07-20T08:20:05.222Z,977.19
2018-07-20T08:21:05.021Z,977.16
2018-07-20T08:22:10.824Z,977.19
2018-07-20T08:23:05.625Z,977.16
2018-07-20T08:24:05.385Z,977.10
2018-07-20T08:25:05.528Z,977.07
2018-07-20T08:26:05.042Z,977.04
2018-07-20T08:27:05.572Z,977.16
2018-07-20T08:28:05.399Z,977.18
2018-07-20T08:29:05.349Z,977.09
2018-07-20T08:30:05.832Z,977.09
2018-07-20T08:31:07.395Z,977.09
2018-07-20T08:32:05.323Z,977.09
2018-07-20T08:33:05.577Z,977.12
2018-07-20T08:34:05.800Z,977.18
2018-07-20T08:35:05.716Z,977.09
2018-07-20T08:36:05.201Z,977.03
2018-07-20T08:37:04.856Z,977.15
2018-07-20T08:38:05.393Z,977.24
2018-07-20T08:39:05.092Z,977.03
2018-07-20T08:40:05.219Z,977.00
2018-07-20T08:41:05.291Z,977.09
2018-07-20T08:42:05.587Z,977.06
2018-07-20T08:43:05.800Z,977.17
2018-07-20T08:44:05.517Z,977.03
2018-07-20T08:45:05.184Z,977.02
2018-07-20T08:46:05.157Z,977.11
2018-07-20T08:47:05.322Z,977.08
2018-07-20T08:48:05.030Z,977.04
2018-07-20T08:49:06.298Z,976.98
2018-07-20T08:50:15.868Z,977.04
2018-07-20T08:51:15.972Z,977.07
2018-07-20T08:52:05.873Z,977.04
2018-07-20T08:53:05.573Z,976.92
2018-07-20T08:54:05.741Z,976.98
2018-07-20T08:55:05.267Z,976.98
2018-07-20T08:56:05.201Z,977.14
2018-07-20T08:57:05.497Z,977.08
2018-07-20T08:58:04.999Z,976.99
2018-07-20T08:59:05.847Z,976.97
2018-07-20T09:00:05.479Z,977.00
2018-07-20T09:01:05.490Z,977.00
2018-07-20T09:02:05.808Z,977.00
2018-07-20T09:03:10.779Z,977.00
2018-07-20T09:04:04.974Z,976.91
2018-07-20T09:05:05.119Z,976.93
2018-07-20T09:06:05.208Z,976.99
2018-07-20T09:07:05.512Z,976.81
2018-07-20T09:08:06.046Z,976.81
2018-07-20T09:09:05.192Z,976.95
2018-07-20T09:10:05.923Z,976.92
2018-07-20T09:11:10.034Z,976.92
2018-07-20T09:12:05.195Z,976.92
2018-07-20T09:13:05.205Z,977.00
2018-07-20T09:14:04.880Z,977.03
2018-07-20T09:15:05.097Z,976.94
2018-07-20T09:16:06.050Z,976.89
2018-07-20T09:17:05.351Z,976.92
2018-07-20T09:18:05.827Z,976.92
2018-07-20T09:19:06.359Z,976.92
2018-07-20T09:20:05.693Z,977.01
2018-07-20T09:21:05.846Z,976.89
2018-07-20T09:22:05.216Z,976.98
2018-07-20T09:23:05.140Z,976.89
2018-07-20T09:24:05.317Z,976.83
2018-07-20T09:25:04.957Z,977.04
2018-07-20T09:26:05.893Z,976.86
2018-07-20T09:27:05.562Z,977.01
2018-07-20T09:28:05.776Z,976.82
2018-07-20T09:29:04.908Z,976.82
2018-07-20T09:30:05.033Z,976.97
2018-07-20T09:31:05.013Z,976.91
2018-07-20T09:32:05.338Z,976.86
2018-07-20T09:33:05.432Z,976.74
2018-07-20T09:34:05.616Z,976.83
2018-07-20T09:35:05.445Z,976.86
2018-07-20T09:36:06.125Z,976.89
2018-07-20T09:37:05.641Z,976.80
2018-07-20T09:38:05.723Z,976.95
2018-07-20T09:39:10.429Z,976.92
2018-07-20T09:40:05.520Z,976.77
2018-07-20T09:41:05.510Z,976.80
2018-07-20T09:42:05.323Z,976.89
2018-07-20T09:43:05.857Z,976.83
2018-07-20T09:44:05.786Z,976.77
2018-07-20T09:45:05.309Z,976.72
2018-07-20T09:46:05.215Z,976.77
2018-07-20T09:47:05.324Z,976.77
2018-07-20T09:48:05.105Z,976.80
2018-07-20T09:49:05.781Z,976.72
2018-07-20T09:50:05.898Z,976.74
2018-07-20T09:51:06.017Z,976.74
2018-07-20T09:52:04.907Z,976.60
2018-07-20T09:53:05.981Z,976.69
2018-07-20T09:54:05.460Z,976.74
2018-07-20T09:55:05.751Z,976.60
2018-07-20T09:56:06.659Z,976.63
2018-07-20T09:57:05.755Z,976.60
2018-07-20T09:58:05.808Z,976.66
2018-07-20T09:59:05.884Z,976.77
2018-07-20T10:00:05.735Z,976.63
2018-07-20T10:01:05.230Z,976.63
2018-07-20T10:02:05.137Z,976.66
2018-07-20T10:03:05.176Z,976.68
2018-07-20T10:04:05.055Z,976.74
2018-07-20T10:05:05.708Z,976.74
2018-07-20T10:06:05.226Z,976.64
2018-07-20T10:07:10.445Z,976.73
2018-07-20T10:08:06.919Z,976.70
2018-07-20T10:09:05.069Z,976.64
2018-07-20T10:10:06.127Z,976.49
2018-07-20T10:11:05.212Z,976.57
2018-07-20T10:12:05.090Z,976.57
2018-07-20T10:13:05.304Z,976.66
2018-07-20T10:14:05.217Z,976.66
2018-07-20T10:15:04.876Z,976.59
2018-07-20T10:16:05.489Z,976.62
2018-07-20T10:17:05.055Z,976.56
2018-07-20T10:18:05.781Z,976.62
2018-07-20T10:19:05.801Z,976.53
2018-07-20T10:20:06.758Z,976.56
2018-07-20T10:21:04.989Z,976.58
2018-07-20T10:22:05.680Z,976.55
2018-07-20T10:23:05.447Z,976.64
2018-07-20T10:24:05.768Z,976.55
2018-07-20T10:25:04.902Z,976.49
2018-07-20T10:26:05.238Z,976.55
2018-07-20T10:27:05.299Z,976.52
2018-07-20T10:28:05.069Z,976.49
2018-07-20T10:29:06.833Z,976.48
2018-07-20T10:30:06.083Z,976.52
2018-07-20T10:31:05.276Z,976.52
2018-07-20T10:32:05.229Z,976.49
2018-07-20T10:33:05.381Z,976.40
2018-07-20T10:34:05.062Z,976.37
2018-07-20T10:35:05.110Z,976.43
2018-07-20T10:36:10.789Z,976.40
2018-07-20T10:37:05.709Z,976.43
2018-07-20T10:38:06.068Z,976.46
2018-07-20T10:39:05.235Z,976.37
2018-07-20T10:40:05.258Z,976.40
2018-07-20T10:41:05.517Z,976.33
2018-07-20T10:42:05.298Z,976.30
2018-07-20T10:43:05.652Z,976.33
2018-07-20T10:44:05.799Z,976.36
2018-07-20T10:45:05.581Z,976.33
2018-07-20T10:46:05.057Z,976.36
2018-07-20T10:47:05.005Z,976.27
2018-07-20T10:48:05.743Z,976.30
2018-07-20T10:49:05.680Z,976.33
2018-07-20T10:50:05.745Z,976.34
2018-07-20T10:51:05.926Z,976.43
2018-07-20T10:52:04.920Z,976.16
2018-07-20T10:53:05.535Z,976.34
2018-07-20T10:54:05.286Z,976.34
2018-07-20T10:55:05.229Z,976.31
2018-07-20T10:56:06.034Z,976.37
2018-07-20T10:57:05.819Z,976.43
2018-07-20T10:58:05.608Z,976.34
2018-07-20T10:59:05.099Z,976.34
2018-07-20T11:00:05.861Z,976.40
2018-07-20T11:01:06.113Z,976.31
2018-07-20T11:02:05.492Z,976.31
2018-07-20T11:03:05.073Z,976.34
2018-07-20T11:04:05.343Z,976.51
2018-07-20T11:05:05.031Z,976.39
2018-07-20T11:06:09.891Z,976.33
2018-07-20T11:07:05.823Z,976.21
2018-07-20T11:08:05.482Z,976.30
2018-07-20T11:09:05.529Z,976.18
2018-07-20T11:10:05.195Z,976.27
2018-07-20T11:11:04.963Z,976.21
2018-07-20T11:12:05.776Z,976.25
2018-07-20T11:13:10.993Z,976.34
2018-07-20T11:14:06.188Z,976.25
2018-07-20T11:15:05.302Z,976.16
2018-07-20T11:16:05.191Z,976.07
2018-07-20T11:17:05.970Z,976.04
2018-07-20T11:18:05.072Z,976.16
2018-07-20T11:19:05.296Z,976.13
2018-07-20T11:20:05.038Z,976.01
2018-07-20T11:21:05.702Z,975.98
2018-07-20T11:22:05.353Z,976.10
2018-07-20T11:23:05.752Z,976.07
2018-07-20T11:24:05.671Z,975.95
2018-07-20T11:25:05.368Z,975.92
2018-07-20T11:26:06.544Z,976.13
2018-07-20T11:27:05.843Z,976.01
2018-07-20T11:28:05.768Z,976.07
2018-07-20T11:29:05.936Z,976.04
2018-07-20T11:30:04.856Z,975.98
2018-07-20T11:31:04.990Z,976.07
2018-07-20T11:32:05.737Z,975.98
2018-07-20T11:33:05.089Z,975.98
2018-07-20T11:34:05.139Z,976.13
2018-07-20T11:35:05.589Z,976.10
2018-07-20T11:36:05.416Z,976.01
2018-07-20T11:37:05.712Z,976.07
2018-07-20T11:38:05.542Z,976.06
2018-07-20T11:39:05.726Z,976.00
2018-07-20T11:40:05.281Z,976.03
2018-07-20T11:41:05.840Z,975.95
2018-07-20T11:42:06.917Z,975.98
2018-07-20T11:43:06.145Z,976.07
2018-07-20T11:44:05.910Z,975.95
2018-07-20T11:45:05.843Z,975.92
2018-07-20T11:46:05.882Z,975.98
2018-07-20T11:47:05.181Z,975.92
2018-07-20T11:48:05.669Z,975.89
2018-07-20T11:49:05.408Z,975.89
2018-07-20T11:50:05.253Z,975.92
2018-07-20T11:51:05.343Z,975.83
2018-07-20T11:52:05.160Z,975.86
2018-07-20T11:53:05.259Z,975.79
2018-07-20T11:54:05.236Z,975.76
2018-07-20T11:55:05.782Z,975.88
2018-07-20T11:56:05.501Z,975.73
2018-07-20T11:57:05.550Z,975.76
2018-07-20T11:58:05.859Z,975.73
2018-07-20T11:59:05.110Z,975.82
2018-07-20T12:00:05.946Z,975.64
2018-07-20T12:01:04.974Z,975.71
2018-07-20T12:02:05.975Z,975.71
2018-07-20T12:03:05.130Z,975.62
2018-07-20T12:04:05.541Z,975.74
2018-07-20T12:05:05.479Z,975.71
2018-07-20T12:06:04.960Z,975.62
2018-07-20T12:07:05.193Z,975.73
2018-07-20T12:08:05.194Z,975.67
2018-07-20T12:09:05.285Z,975.64
2018-07-20T12:10:04.964Z,975.73
2018-07-20T12:11:05.413Z,975.49
2018-07-20T12:12:05.633Z,975.67
2018-07-20T12:13:05.443Z,975.55
2018-07-20T12:14:05.767Z,975.67
2018-07-20T12:15:05.819Z,975.67
2018-07-20T12:16:05.178Z,975.58
2018-07-20T12:17:05.091Z,975.55
2018-07-20T12:18:05.609Z,975.49
2018-07-20T12:19:05.279Z,975.64
2018-07-20T12:20:24.955Z,975.49
2018-07-20T12:21:06.487Z,975.52
2018-07-20T12:22:05.812Z,975.61
2018-07-20T12:23:10.279Z,975.40
2018-07-20T12:24:05.302Z,975.48
2018-07-20T12:25:04.899Z,975.48
2018-07-20T12:26:05.804Z,975.42
2018-07-20T12:27:04.929Z,975.42
2018-07-20T12:28:05.457Z,975.44